createdAt,value
2022-12-27T00:01:38.077Z,2.45
2022-12-27T00:04:05.845Z,2.42
2022-12-27T00:06:33.122Z,2.72
2022-12-27T00:09:02.226Z,3.63
2022-12-27T00:11:32.306Z,3.38
2022-12-27T00:14:00.787Z,5.28
2022-12-27T00:16:28.275Z,5.10
2022-12-27T00:18:55.535Z,4.63
2022-12-27T00:21:23.569Z,2.08
2022-12-27T00:23:56.679Z,5.75
2022-12-27T00:26:29.424Z,3.42
2022-12-27T00:28:57.217Z,2.13
2022-12-27T00:31:26.273Z,3.97
2022-12-27T00:33:55.629Z,3.10
2022-12-27T00:36:26.433Z,1.77
2022-12-27T00:38:55.908Z,2.45
2022-12-27T00:41:23.203Z,2.13
2022-12-27T00:43:50.732Z,2.25
2022-12-27T00:46:18.477Z,4.60
2022-12-27T00:48:46.236Z,3.45
2022-12-27T00:51:19.264Z,3.38
2022-12-27T00:53:47.115Z,3.10
2022-12-27T00:56:20.638Z,2.55
2022-12-27T00:58:48.237Z,2.97
2022-12-27T01:01:17.756Z,3.85
2022-12-27T01:03:46.223Z,3.03
2022-12-27T01:06:20.669Z,2.08
2022-12-27T01:08:48.915Z,1.30
2022-12-27T01:11:18.215Z,4.95
2022-12-27T01:13:45.995Z,1.65
2022-12-27T01:16:16.016Z,4.45
2022-12-27T01:18:43.847Z,2.38
2022-12-27T01:21:13.603Z,2.45
2022-12-27T01:23:41.102Z,2.22
2022-12-27T01:26:13.342Z,4.97
2022-12-27T01:28:40.793Z,3.63
2022-12-27T01:31:10.028Z,2.30
2022-12-27T01:33:37.850Z,2.45
2022-12-27T01:36:14.125Z,4.03
2022-12-27T01:38:43.339Z,2.78
2022-12-27T01:41:34.860Z,2.95
2022-12-27T01:44:02.025Z,2.10
2022-12-27T01:46:30.664Z,4.63
2022-12-27T01:48:58.215Z,3.83
2022-12-27T01:51:25.772Z,3.92
2022-12-27T01:53:53.950Z,2.70
2022-12-27T01:56:27.774Z,3.03
2022-12-27T01:59:00.658Z,4.67
2022-12-27T02:01:33.384Z,2.83
2022-12-27T02:04:08.375Z,5.10
2022-12-27T02:06:37.285Z,2.10
2022-12-27T02:09:35.535Z,2.05
2022-12-27T02:12:06.297Z,4.72
2022-12-27T02:14:45.181Z,5.40
2022-12-27T02:17:20.496Z,2.63
2022-12-27T02:20:14.028Z,4.30
2022-12-27T02:23:18.560Z,4.07
2022-12-27T02:25:51.428Z,3.38
2022-12-27T02:28:49.529Z,3.95
2022-12-27T02:31:41.401Z,4.35
2022-12-27T02:34:18.867Z,4.85
2022-12-27T02:36:47.161Z,3.95
2022-12-27T02:39:16.238Z,5.50
2022-12-27T02:42:03.892Z,2.83
2022-12-27T02:44:49.595Z,4.07
2022-12-27T02:47:41.096Z,4.70
2022-12-27T02:50:29.962Z,4.10
2022-12-27T02:53:23.018Z,4.40
2022-12-27T02:56:20.658Z,2.00
2022-12-27T02:58:53.447Z,2.00
2022-12-27T03:01:42.478Z,3.88
2022-12-27T03:04:38.020Z,5.13
2022-12-27T03:09:56.294Z,2.50
2022-12-27T03:13:04.493Z,3.17
2022-12-27T03:15:53.256Z,5.05
2022-12-27T03:18:38.426Z,3.20
2022-12-27T03:21:26.796Z,1.92
2022-12-27T03:24:15.760Z,2.13
2022-12-27T03:26:50.298Z,2.45
2022-12-27T03:32:27.802Z,2.30
2022-12-27T03:35:05.672Z,2.75
2022-12-27T03:37:55.842Z,3.13
2022-12-27T03:41:04.289Z,4.75
2022-12-27T03:43:32.312Z,2.60
2022-12-27T03:46:36.058Z,2.17
2022-12-27T03:49:08.991Z,2.70
2022-12-27T03:51:57.174Z,4.07
2022-12-27T03:54:31.116Z,3.53
2022-12-27T03:57:01.859Z,2.90
2022-12-27T03:59:29.484Z,4.20
2022-12-27T04:01:57.562Z,3.33
2022-12-27T04:04:25.269Z,5.53
2022-12-27T04:06:52.472Z,4.28
2022-12-27T04:09:38.328Z,3.10
2022-12-27T04:12:24.510Z,5.30
2022-12-27T04:15:10.395Z,3.97
2022-12-27T04:17:56.418Z,3.33
2022-12-27T04:20:42.029Z,5.45
2022-12-27T04:23:27.902Z,7.25
2022-12-27T04:26:13.697Z,4.45
2022-12-27T04:28:59.878Z,3.72
2022-12-27T04:31:45.735Z,4.43
2022-12-27T04:34:31.119Z,3.13
2022-12-27T04:36:58.637Z,4.30
2022-12-27T04:39:26.048Z,4.15
2022-12-27T04:42:11.922Z,4.53
2022-12-27T04:44:57.296Z,6.28
2022-12-27T04:47:43.408Z,6.97
2022-12-27T04:50:51.060Z,5.03
2022-12-27T04:53:39.282Z,5.55
2022-12-27T04:56:07.420Z,5.38
2022-12-27T04:58:35.368Z,4.10
2022-12-27T05:01:23.102Z,4.07
2022-12-27T05:03:53.651Z,3.42
2022-12-27T05:06:21.397Z,3.75
2022-12-27T05:09:07.393Z,3.55
2022-12-27T05:11:52.872Z,2.75
2022-12-27T05:14:20.122Z,2.63
2022-12-27T05:16:47.265Z,3.28
2022-12-27T05:19:15.454Z,6.25
2022-12-27T05:22:03.630Z,5.63
2022-12-27T05:24:49.928Z,3.55
2022-12-27T05:27:18.200Z,3.40
2022-12-27T05:29:46.776Z,5.13
2022-12-27T05:32:14.028Z,5.72
2022-12-27T05:34:41.657Z,2.97
2022-12-27T05:37:09.276Z,6.05
2022-12-27T05:39:36.496Z,4.70
2022-12-27T05:42:04.023Z,2.03
2022-12-27T05:44:31.331Z,10.40
2022-12-27T05:46:58.541Z,5.97
2022-12-27T05:49:25.692Z,6.35
2022-12-27T05:51:53.296Z,5.40
2022-12-27T05:54:20.454Z,3.70
2022-12-27T05:56:47.800Z,4.88
2022-12-27T05:59:14.991Z,3.40
2022-12-27T06:01:42.410Z,6.45
2022-12-27T06:04:10.823Z,5.60
2022-12-27T06:06:38.508Z,3.78
2022-12-27T06:09:05.974Z,2.80
2022-12-27T06:11:33.414Z,4.18
2022-12-27T06:14:00.923Z,3.53
2022-12-27T06:16:28.217Z,3.17
2022-12-27T06:18:55.664Z,3.40
2022-12-27T06:21:23.419Z,1.95
2022-12-27T06:23:50.815Z,4.20
2022-12-27T06:26:21.092Z,3.53
2022-12-27T06:28:49.804Z,3.35
2022-12-27T06:31:19.451Z,3.45
2022-12-27T06:33:50.662Z,2.65
2022-12-27T06:36:20.743Z,3.35
2022-12-27T06:38:48.783Z,3.75
2022-12-27T06:41:17.839Z,3.15
2022-12-27T06:43:46.139Z,2.28
2022-12-27T06:46:17.920Z,5.25
2022-12-27T06:48:46.735Z,4.88
2022-12-27T06:51:16.025Z,4.55
2022-12-27T06:53:43.348Z,4.28
2022-12-27T06:56:22.571Z,7.28
2022-12-27T06:58:51.123Z,5.38
2022-12-27T07:01:24.217Z,5.95
2022-12-27T07:03:57.682Z,5.63
2022-12-27T07:06:27.624Z,5.97
2022-12-27T07:08:56.716Z,1.70
2022-12-27T07:11:24.767Z,1.95
2022-12-27T07:13:53.982Z,3.40
2022-12-27T07:16:24.298Z,5.85
2022-12-27T07:18:52.115Z,3.60
2022-12-27T07:21:24.518Z,6.25
2022-12-27T07:23:52.413Z,4.32
2022-12-27T07:26:22.629Z,4.07
2022-12-27T07:28:53.008Z,4.18
2022-12-27T07:31:26.676Z,3.72
2022-12-27T07:33:54.010Z,3.10
2022-12-27T07:36:26.900Z,3.80
2022-12-27T07:38:54.180Z,6.18
2022-12-27T07:41:21.677Z,17.52
2022-12-27T07:43:48.980Z,21.42
2022-12-27T07:46:24.982Z,18.95
2022-12-27T07:48:57.700Z,12.85
2022-12-27T07:51:26.332Z,9.85
2022-12-27T07:53:54.253Z,6.60
2022-12-27T07:56:26.548Z,7.00
2022-12-27T07:58:57.024Z,8.55
2022-12-27T08:01:27.184Z,10.43
2022-12-27T08:03:55.154Z,9.48
2022-12-27T08:06:31.816Z,16.58
2022-12-27T08:09:00.991Z,17.88
2022-12-27T08:11:28.772Z,20.90
2022-12-27T08:13:56.145Z,22.92
2022-12-27T08:18:34.149Z,8.52
2022-12-27T08:21:02.115Z,5.40
2022-12-27T08:23:29.488Z,4.20
2022-12-27T08:25:56.648Z,1.88
2022-12-27T08:28:23.963Z,4.60
2022-12-27T08:30:51.333Z,5.00
2022-12-27T08:33:19.435Z,3.75
2022-12-27T08:35:54.796Z,3.28
2022-12-27T08:38:23.234Z,3.45
2022-12-27T08:40:51.132Z,3.53
2022-12-27T08:43:18.909Z,5.18
2022-12-27T08:45:46.439Z,7.03
2022-12-27T08:48:13.811Z,4.20
2022-12-27T08:50:41.114Z,5.63
2022-12-27T08:53:08.352Z,4.05
2022-12-27T08:55:36.410Z,6.32
2022-12-27T08:58:10.562Z,5.78
2022-12-27T09:00:42.894Z,4.13
2022-12-27T09:03:10.944Z,3.95
2022-12-27T09:05:41.898Z,5.80
2022-12-27T09:08:10.601Z,4.78
2022-12-27T09:10:38.462Z,6.50
2022-12-27T09:13:05.669Z,5.07
2022-12-27T09:15:32.957Z,8.52
2022-12-27T09:18:00.214Z,5.50
2022-12-27T09:20:27.569Z,6.25
2022-12-27T09:22:55.041Z,6.10
2022-12-27T09:25:22.343Z,6.00
2022-12-27T09:27:49.677Z,3.15
2022-12-27T09:30:18.200Z,10.13
2022-12-27T09:32:45.564Z,4.47
2022-12-27T09:35:12.949Z,5.93
2022-12-27T09:37:40.335Z,3.40
2022-12-27T09:40:13.755Z,4.55
2022-12-27T09:43:09.442Z,7.38
2022-12-27T09:45:48.619Z,5.13
2022-12-27T09:48:35.588Z,5.20
2022-12-27T09:51:08.798Z,6.10
2022-12-27T09:53:56.965Z,3.35
2022-12-27T09:56:40.937Z,4.80
2022-12-27T09:59:43.505Z,5.47
2022-12-27T10:02:24.475Z,7.28
2022-12-27T10:05:19.165Z,4.93
2022-12-27T10:07:43.992Z,5.43
2022-12-27T10:10:35.683Z,2.95
2022-12-27T10:13:14.897Z,4.60
2022-12-27T10:15:55.307Z,7.85
2022-12-27T10:18:33.808Z,4.63
2022-12-27T10:21:12.539Z,2.95
2022-12-27T10:23:44.970Z,7.10
2022-12-27T10:26:16.280Z,4.35
2022-12-27T10:28:46.445Z,5.00
2022-12-27T10:31:19.223Z,5.57
2022-12-27T10:33:48.976Z,7.75
2022-12-27T10:36:23.888Z,6.30
2022-12-27T10:38:51.249Z,6.20
2022-12-27T10:41:41.761Z,3.55
2022-12-27T10:44:12.541Z,4.53
2022-12-27T10:46:42.810Z,8.10
2022-12-27T10:49:30.820Z,6.03
2022-12-27T10:52:07.739Z,4.75
2022-12-27T10:54:35.256Z,5.88
2022-12-27T10:57:27.100Z,4.05
2022-12-27T11:00:16.680Z,3.55
2022-12-27T11:02:58.046Z,5.53
2022-12-27T11:05:30.877Z,4.50
2022-12-27T11:07:58.681Z,4.78
2022-12-27T11:10:28.302Z,3.03
2022-12-27T11:13:06.566Z,3.58
2022-12-27T11:15:40.578Z,6.80
2022-12-27T11:18:19.784Z,3.42
2022-12-27T11:20:55.080Z,5.38
2022-12-27T11:23:24.544Z,4.05
2022-12-27T11:26:05.246Z,6.30
2022-12-27T11:28:39.765Z,3.58
2022-12-27T11:31:19.260Z,5.40
2022-12-27T11:33:50.199Z,3.50
2022-12-27T11:36:27.889Z,3.47
2022-12-27T11:38:55.871Z,4.05
2022-12-27T11:41:31.899Z,9.32
2022-12-27T11:44:22.373Z,5.60
2022-12-27T11:47:37.308Z,3.25
2022-12-27T11:50:22.412Z,6.13
2022-12-27T11:55:37.416Z,4.70
2022-12-27T11:58:32.270Z,5.95
2022-12-27T12:01:28.849Z,5.78
2022-12-27T12:04:26.605Z,4.53
2022-12-27T12:07:12.981Z,5.45
2022-12-27T12:10:04.780Z,4.57
2022-12-27T12:12:47.469Z,3.10
2022-12-27T12:15:26.190Z,4.15
2022-12-27T12:18:21.029Z,3.08
2022-12-27T12:21:26.367Z,3.75
2022-12-27T12:24:21.023Z,2.33
2022-12-27T12:27:06.871Z,3.20
2022-12-27T12:30:00.400Z,4.43
2022-12-27T12:32:41.707Z,5.47
2022-12-27T12:35:34.673Z,2.72
2022-12-27T12:38:21.974Z,4.53
2022-12-27T12:40:59.565Z,3.63
2022-12-27T12:43:41.975Z,5.32
2022-12-27T12:46:37.706Z,4.32
2022-12-27T12:49:04.793Z,3.17
2022-12-27T12:51:41.210Z,7.00
2022-12-27T12:54:28.247Z,4.82
2022-12-27T12:57:01.092Z,4.80
2022-12-27T12:59:49.646Z,8.50
2022-12-27T13:02:29.067Z,32.78
2022-12-27T13:05:11.789Z,9.05
2022-12-27T13:08:01.137Z,10.82
2022-12-27T13:11:02.579Z,4.32
2022-12-27T13:14:04.667Z,7.97
2022-12-27T13:16:34.761Z,12.05
2022-12-27T13:19:13.443Z,19.73
2022-12-27T13:22:05.264Z,18.02
2022-12-27T13:24:59.045Z,11.95
2022-12-27T13:27:35.462Z,8.57
2022-12-27T13:30:23.585Z,5.93
2022-12-27T13:33:10.854Z,8.23
2022-12-27T13:35:54.367Z,5.43
2022-12-27T13:38:30.631Z,7.60
2022-12-27T13:41:39.970Z,3.88
2022-12-27T13:44:31.790Z,3.00
2022-12-27T13:47:12.676Z,7.50
2022-12-27T13:50:13.767Z,9.48
2022-12-27T13:52:53.276Z,5.90
2022-12-27T13:55:41.919Z,4.85
2022-12-27T13:58:33.646Z,5.93
2022-12-27T14:01:17.690Z,4.38
2022-12-27T14:03:57.249Z,4.60
2022-12-27T14:06:33.363Z,5.50
2022-12-27T14:09:00.358Z,7.22
2022-12-27T14:11:47.999Z,6.90
2022-12-27T14:14:18.254Z,4.28
2022-12-27T14:16:59.516Z,5.50
2022-12-27T14:19:44.704Z,6.40
2022-12-27T14:22:14.565Z,4.78
2022-12-27T14:25:20.154Z,4.32
2022-12-27T14:31:33.894Z,8.23
2022-12-27T14:34:19.635Z,5.80
2022-12-27T14:36:59.544Z,7.10
2022-12-27T14:40:04.185Z,13.75
2022-12-27T14:42:59.349Z,10.30
2022-12-27T14:46:14.643Z,9.50
2022-12-27T14:49:07.073Z,8.38
2022-12-27T14:52:07.251Z,4.75
2022-12-27T14:55:16.347Z,3.75
2022-12-27T14:57:55.627Z,4.72
2022-12-27T15:00:24.299Z,3.03
2022-12-27T15:03:18.504Z,3.63
2022-12-27T15:05:49.521Z,5.67
2022-12-27T15:08:56.146Z,2.92
2022-12-27T15:11:40.441Z,3.10
2022-12-27T15:14:28.820Z,4.70
2022-12-27T15:17:16.471Z,7.68
2022-12-27T15:20:02.406Z,8.48
2022-12-27T15:23:00.678Z,8.15
2022-12-27T15:25:55.345Z,5.75
2022-12-27T15:28:48.912Z,6.05
2022-12-27T15:31:45.484Z,12.05
2022-12-27T15:34:24.743Z,22.00
2022-12-27T15:36:52.158Z,21.23
2022-12-27T15:39:34.584Z,17.20
2022-12-27T15:42:11.684Z,11.13
2022-12-27T15:45:12.034Z,7.50
2022-12-27T15:47:58.167Z,5.63
2022-12-27T15:50:46.765Z,6.90
2022-12-27T15:53:19.713Z,7.68
2022-12-27T15:56:04.280Z,9.80
2022-12-27T15:58:31.833Z,61.28
2022-12-27T16:01:25.268Z,9.43
2022-12-27T16:03:53.973Z,5.28
2022-12-27T16:06:44.050Z,5.95
2022-12-27T16:09:35.613Z,6.50
2022-12-27T16:12:15.635Z,7.90
2022-12-27T16:14:44.027Z,11.07
2022-12-27T16:17:34.631Z,12.75
2022-12-27T16:20:32.584Z,14.45
2022-12-27T16:23:06.307Z,13.77
2022-12-27T16:25:38.871Z,12.77
2022-12-27T16:28:40.060Z,11.43
2022-12-27T16:31:11.992Z,8.65
2022-12-27T16:33:41.518Z,9.13
2022-12-27T16:36:23.158Z,9.13
2022-12-27T16:38:59.118Z,9.70
2022-12-27T16:41:32.088Z,11.18
2022-12-27T16:44:07.083Z,12.75
2022-12-27T16:46:59.392Z,9.20
2022-12-27T16:49:38.502Z,10.40
2022-12-27T16:52:17.678Z,7.57
2022-12-27T16:55:07.785Z,8.00
2022-12-27T16:57:46.522Z,8.88
2022-12-27T17:00:38.824Z,10.65
2022-12-27T17:03:21.545Z,14.13
2022-12-27T17:06:30.687Z,13.27
2022-12-27T17:08:40.400Z,6.30
2022-12-27T17:11:29.621Z,10.05
2022-12-27T17:14:09.325Z,10.60
2022-12-27T17:16:48.720Z,15.05
2022-12-27T17:19:34.293Z,12.82
2022-12-27T17:22:04.699Z,20.83
2022-12-27T17:24:32.360Z,50.78
2022-12-27T17:27:22.493Z,45.08
2022-12-27T17:29:58.345Z,39.33
2022-12-27T17:32:41.552Z,29.98
2022-12-27T17:35:33.046Z,31.20
2022-12-27T17:38:42.178Z,36.78
2022-12-27T17:41:51.511Z,56.10
2022-12-27T17:44:39.446Z,28.90
2022-12-27T17:47:33.678Z,19.10
2022-12-27T17:50:03.883Z,11.83
2022-12-27T17:52:49.769Z,14.45
2022-12-27T17:55:46.769Z,11.77
2022-12-27T17:58:16.540Z,10.85
2022-12-27T18:00:52.799Z,14.65
2022-12-27T18:03:20.459Z,11.48
2022-12-27T18:05:49.528Z,34.90
2022-12-27T18:08:30.447Z,15.52
2022-12-27T18:10:59.075Z,13.52
2022-12-27T18:13:28.426Z,10.43
2022-12-27T18:15:56.884Z,9.95
2022-12-27T18:18:28.623Z,7.15
2022-12-27T18:21:02.459Z,8.75
2022-12-27T18:23:30.528Z,15.60
2022-12-27T18:26:09.310Z,11.77
2022-12-27T18:28:41.064Z,9.60
2022-12-27T18:31:23.181Z,8.48
2022-12-27T18:33:52.200Z,10.85
2022-12-27T18:36:33.562Z,12.63
2022-12-27T18:39:06.161Z,13.25
2022-12-27T18:41:45.273Z,19.58
2022-12-27T18:44:21.565Z,16.63
2022-12-27T18:46:57.741Z,28.67
2022-12-27T18:49:36.715Z,25.73
2022-12-27T18:52:15.538Z,21.70
2022-12-27T18:54:43.336Z,15.93
2022-12-27T18:57:35.341Z,12.65
2022-12-27T19:00:15.419Z,10.35
2022-12-27T19:02:43.748Z,13.68
2022-12-27T19:05:27.493Z,13.70
2022-12-27T19:08:17.225Z,15.93
2022-12-27T19:10:50.672Z,10.50
2022-12-27T19:13:26.103Z,8.93
2022-12-27T19:15:57.827Z,10.80
2022-12-27T19:18:30.934Z,9.48
2022-12-27T19:21:02.292Z,8.32
2022-12-27T19:23:38.189Z,12.65
2022-12-27T19:26:31.330Z,9.73
2022-12-27T19:29:07.744Z,11.57
2022-12-27T19:31:38.671Z,18.15
2022-12-27T19:34:13.407Z,13.48
2022-12-27T19:36:44.273Z,15.25
2022-12-27T19:39:34.332Z,15.38
2022-12-27T19:42:07.747Z,11.15
2022-12-27T19:44:35.017Z,11.88
2022-12-27T19:47:02.465Z,14.30
2022-12-27T19:49:45.228Z,12.80
2022-12-27T19:52:22.465Z,9.88
2022-12-27T19:54:51.412Z,10.48
2022-12-27T19:57:18.617Z,12.60
2022-12-27T19:59:45.833Z,10.05
2022-12-27T20:02:13.440Z,11.93
2022-12-27T20:04:41.343Z,10.88
2022-12-27T20:07:18.229Z,13.23
2022-12-27T20:09:45.463Z,11.05
2022-12-27T20:12:13.004Z,11.70
2022-12-27T20:14:40.196Z,10.98
2022-12-27T20:17:07.487Z,15.15
2022-12-27T20:19:34.881Z,13.52
2022-12-27T20:22:02.346Z,14.68
2022-12-27T20:24:31.683Z,12.85
2022-12-27T20:26:59.374Z,14.57
2022-12-27T20:29:27.873Z,15.85
2022-12-27T20:31:57.084Z,19.23
2022-12-27T20:34:24.356Z,17.50
2022-12-27T20:36:55.214Z,30.88
2022-12-27T20:39:22.645Z,23.27
2022-12-27T20:41:49.940Z,25.02
2022-12-27T20:44:17.297Z,29.75
2022-12-27T20:46:44.618Z,30.17
2022-12-27T20:49:11.669Z,27.88
2022-12-27T20:51:39.093Z,34.03
2022-12-27T20:54:06.403Z,22.27
2022-12-27T20:56:35.343Z,15.77
2022-12-27T20:59:02.721Z,17.10
2022-12-27T21:01:30.692Z,18.27
2022-12-27T21:03:58.319Z,15.07
2022-12-27T21:06:28.272Z,13.63
2022-12-27T21:08:58.153Z,10.15
2022-12-27T21:11:31.554Z,11.02
2022-12-27T21:14:01.489Z,8.68
2022-12-27T21:16:31.052Z,10.75
2022-12-27T21:18:58.866Z,10.50
2022-12-27T21:21:28.907Z,16.08
2022-12-27T21:24:00.636Z,23.30
2022-12-27T21:26:30.552Z,29.20
2022-12-27T21:28:59.400Z,26.58
2022-12-27T21:31:27.236Z,23.88
2022-12-27T21:33:54.788Z,24.05
2022-12-27T21:36:27.451Z,22.73
2022-12-27T21:38:56.034Z,25.48
2022-12-27T21:41:29.972Z,20.60
2022-12-27T21:43:58.011Z,24.30
2022-12-27T21:46:29.038Z,19.92
2022-12-27T21:48:58.576Z,17.63
2022-12-27T21:51:26.835Z,16.23
2022-12-27T21:53:54.377Z,15.35
2022-12-27T21:56:22.569Z,14.55
2022-12-27T21:58:49.839Z,16.45
2022-12-27T22:01:18.383Z,29.25
2022-12-27T22:03:48.820Z,22.33
2022-12-27T22:06:22.707Z,20.15
2022-12-27T22:08:52.161Z,21.45
2022-12-27T22:11:22.029Z,19.10
2022-12-27T22:13:50.896Z,20.73
2022-12-27T22:16:24.264Z,18.55
2022-12-27T22:18:53.178Z,16.35
2022-12-27T22:21:27.677Z,16.92
2022-12-27T22:26:38.357Z,21.08
2022-12-27T22:29:06.893Z,21.70
2022-12-27T22:31:36.765Z,22.27
2022-12-27T22:34:05.501Z,22.80
2022-12-27T22:36:33.245Z,26.25
2022-12-27T22:39:01.758Z,20.63
2022-12-27T22:41:34.891Z,20.20
2022-12-27T22:44:04.513Z,13.43
2022-12-27T22:46:58.761Z,20.35
2022-12-27T22:49:20.091Z,15.23
2022-12-27T22:51:47.903Z,14.93
2022-12-27T22:54:15.246Z,17.23
2022-12-27T22:56:43.457Z,15.52
2022-12-27T22:59:15.214Z,17.17
2022-12-27T23:01:44.141Z,17.65
2022-12-27T23:04:14.034Z,21.65
2022-12-27T23:06:42.548Z,23.33
2022-12-27T23:09:10.287Z,18.92
2022-12-27T23:11:43.706Z,19.27
2022-12-27T23:14:14.493Z,19.05
2022-12-27T23:16:48.164Z,21.33
2022-12-27T23:19:19.171Z,27.30
2022-12-27T23:21:48.409Z,30.17
2022-12-27T23:24:16.353Z,29.13
2022-12-27T23:26:43.896Z,28.23
2022-12-27T23:29:12.887Z,25.65
2022-12-27T23:31:54.400Z,30.77
2022-12-27T23:34:28.833Z,26.77
2022-12-27T23:36:57.838Z,26.33
2022-12-27T23:39:25.047Z,23.30
2022-12-27T23:41:52.393Z,24.17
2022-12-27T23:44:34.337Z,23.20
2022-12-27T23:47:06.167Z,23.83
2022-12-27T23:49:33.731Z,20.75
2022-12-27T23:52:01.246Z,23.88
2022-12-27T23:54:28.416Z,23.27
2022-12-27T23:56:55.801Z,25.30
2022-12-27T23:59:23.054Z,25.38
